sensor_id;sensor_type;location;lat;lon;timestamp;P1;durP1;ratioP1;P2;durP2;ratioP2
52530;SDS011;38441;52.894;6.040;2023-05-07T00:06:16;13.43;;;10.30;;
52530;SDS011;38441;52.894;6.040;2023-05-07T00:09:03;12.75;;;10.25;;
52530;SDS011;38441;52.894;6.040;2023-05-07T00:17:48;13.02;;;10.88;;
52530;SDS011;38441;52.894;6.040;2023-05-07T00:20:53;16.42;;;10.60;;
52530;SDS011;38441;52.894;6.040;2023-05-07T00:27:55;16.60;;;11.27;;
52530;SDS011;38441;52.894;6.040;2023-05-07T00:30:48;13.57;;;11.10;;
52530;SDS011;38441;52.894;6.040;2023-05-07T00:33:13;15.75;;;11.80;;
52530;SDS011;38441;52.894;6.040;2023-05-07T00:35:39;15.30;;;10.73;;
52530;SDS011;38441;52.894;6.040;2023-05-07T00:41:33;15.00;;;12.52;;
52530;SDS011;38441;52.894;6.040;2023-05-07T00:44:01;15.07;;;11.65;;
52530;SDS011;38441;52.894;6.040;2023-05-07T00:46:29;14.50;;;11.90;;
52530;SDS011;38441;52.894;6.040;2023-05-07T00:48:59;14.80;;;12.13;;
52530;SDS011;38441;52.894;6.040;2023-05-07T00:51:34;13.75;;;11.95;;
52530;SDS011;38441;52.894;6.040;2023-05-07T13:06:47;17.58;;;14.07;;
52530;SDS011;38441;52.894;6.040;2023-05-07T13:09:16;17.73;;;14.95;;
52530;SDS011;38441;52.894;6.040;2023-05-07T13:11:51;18.02;;;14.77;;
52530;SDS011;38441;52.894;6.040;2023-05-07T13:14:20;17.42;;;14.55;;
52530;SDS011;38441;52.894;6.040;2023-05-07T13:20:06;16.15;;;14.00;;
52530;SDS011;38441;52.894;6.040;2023-05-07T13:22:33;17.73;;;14.40;;
52530;SDS011;38441;52.894;6.040;2023-05-07T13:24:58;17.33;;;14.52;;
52530;SDS011;38441;52.894;6.040;2023-05-07T13:27:24;17.02;;;14.35;;
52530;SDS011;38441;52.894;6.040;2023-05-07T13:29:51;17.23;;;15.27;;
52530;SDS011;38441;52.894;6.040;2023-05-07T13:32:16;15.07;;;13.48;;
52530;SDS011;38441;52.894;6.040;2023-05-07T13:34:42;16.40;;;13.10;;
52530;SDS011;38441;52.894;6.040;2023-05-07T13:37:11;16.13;;;13.55;;
52530;SDS011;38441;52.894;6.040;2023-05-07T13:39:36;16.58;;;13.52;;
52530;SDS011;38441;52.894;6.040;2023-05-07T13:42:02;13.80;;;11.73;;
52530;SDS011;38441;52.894;6.040;2023-05-07T13:44:28;15.07;;;12.82;;
52530;SDS011;38441;52.894;6.040;2023-05-07T13:46:56;18.70;;;13.07;;
52530;SDS011;38441;52.894;6.040;2023-05-07T13:49:21;15.95;;;12.30;;
52530;SDS011;38441;52.894;6.040;2023-05-07T13:51:47;14.52;;;13.00;;
52530;SDS011;38441;52.894;6.040;2023-05-07T13:54:12;15.50;;;12.93;;
52530;SDS011;38441;52.894;6.040;2023-05-07T13:56:38;14.93;;;13.25;;
52530;SDS011;38441;52.894;6.040;2023-05-07T13:59:04;14.60;;;12.68;;
52530;SDS011;38441;52.894;6.040;2023-05-07T14:01:30;14.00;;;12.20;;
52530;SDS011;38441;52.894;6.040;2023-05-07T14:03:56;13.43;;;11.70;;
52530;SDS011;38441;52.894;6.040;2023-05-07T14:06:25;13.75;;;11.02;;
52530;SDS011;38441;52.894;6.040;2023-05-07T14:08:51;14.95;;;12.70;;
52530;SDS011;38441;52.894;6.040;2023-05-07T14:11:17;14.02;;;12.27;;
52530;SDS011;38441;52.894;6.040;2023-05-07T14:13:46;15.45;;;13.35;;
52530;SDS011;38441;52.894;6.040;2023-05-07T14:16:11;14.60;;;12.95;;
52530;SDS011;38441;52.894;6.040;2023-05-07T14:18:37;14.75;;;11.55;;
52530;SDS011;38441;52.894;6.040;2023-05-07T14:21:06;15.45;;;12.45;;
52530;SDS011;38441;52.894;6.040;2023-05-07T14:23:32;14.15;;;11.10;;
52530;SDS011;38441;52.894;6.040;2023-05-07T14:25:58;14.23;;;12.48;;
52530;SDS011;38441;52.894;6.040;2023-05-07T14:28:23;13.48;;;10.90;;
52530;SDS011;38441;52.894;6.040;2023-05-07T14:30:49;13.88;;;12.07;;
52530;SDS011;38441;52.894;6.040;2023-05-07T14:33:15;15.90;;;11.75;;
52530;SDS011;38441;52.894;6.040;2023-05-07T14:35:42;16.75;;;11.32;;
52530;SDS011;38441;52.894;6.040;2023-05-07T14:38:12;15.75;;;12.32;;
52530;SDS011;38441;52.894;6.040;2023-05-07T14:40:38;14.93;;;11.73;;
52530;SDS011;38441;52.894;6.040;2023-05-07T14:43:04;13.27;;;11.45;;
52530;SDS011;38441;52.894;6.040;2023-05-07T14:45:30;13.10;;;11.57;;
52530;SDS011;38441;52.894;6.040;2023-05-07T14:48:05;13.25;;;11.25;;
52530;SDS011;38441;52.894;6.040;2023-05-07T14:50:31;14.25;;;12.73;;
52530;SDS011;38441;52.894;6.040;2023-05-07T14:52:56;14.98;;;12.57;;
52530;SDS011;38441;52.894;6.040;2023-05-07T14:55:26;14.45;;;12.25;;
52530;SDS011;38441;52.894;6.040;2023-05-07T14:57:55;14.98;;;11.90;;
52530;SDS011;38441;52.894;6.040;2023-05-07T15:00:21;14.63;;;11.73;;
52530;SDS011;38441;52.894;6.040;2023-05-07T15:02:46;12.77;;;10.95;;
52530;SDS011;38441;52.894;6.040;2023-05-07T15:05:12;11.57;;;9.45;;
52530;SDS011;38441;52.894;6.040;2023-05-07T15:07:39;12.07;;;9.77;;
52530;SDS011;38441;52.894;6.040;2023-05-07T15:10:08;11.93;;;10.43;;
52530;SDS011;38441;52.894;6.040;2023-05-07T15:12:34;10.98;;;9.52;;
52530;SDS011;38441;52.894;6.040;2023-05-07T15:15:00;11.20;;;9.10;;
52530;SDS011;38441;52.894;6.040;2023-05-07T15:17:27;11.10;;;9.73;;
52530;SDS011;38441;52.894;6.040;2023-05-07T15:19:58;12.52;;;9.95;;
52530;SDS011;38441;52.894;6.040;2023-05-07T15:22:23;13.27;;;10.75;;
52530;SDS011;38441;52.894;6.040;2023-05-07T15:24:54;12.55;;;10.63;;
52530;SDS011;38441;52.894;6.040;2023-05-07T15:27:22;14.80;;;10.80;;
52530;SDS011;38441;52.894;6.040;2023-05-07T15:29:48;13.63;;;11.40;;
52530;SDS011;38441;52.894;6.040;2023-05-07T15:32:13;14.60;;;12.43;;
52530;SDS011;38441;52.894;6.040;2023-05-07T15:34:39;14.40;;;11.73;;
52530;SDS011;38441;52.894;6.040;2023-05-07T15:37:08;13.70;;;11.18;;
52530;SDS011;38441;52.894;6.040;2023-05-07T15:39:41;14.60;;;10.00;;
52530;SDS011;38441;52.894;6.040;2023-05-07T15:42:11;11.75;;;10.07;;
52530;SDS011;38441;52.894;6.040;2023-05-07T15:47:06;12.02;;;10.13;;
52530;SDS011;38441;52.894;6.040;2023-05-07T15:49:38;14.05;;;10.02;;
52530;SDS011;38441;52.894;6.040;2023-05-07T15:52:04;14.35;;;12.05;;
52530;SDS011;38441;52.894;6.040;2023-05-07T15:54:30;13.82;;;10.95;;
52530;SDS011;38441;52.894;6.040;2023-05-07T15:56:55;14.02;;;10.70;;
52530;SDS011;38441;52.894;6.040;2023-05-07T15:59:21;12.73;;;10.60;;
52530;SDS011;38441;52.894;6.040;2023-05-07T16:01:50;12.45;;;11.13;;
52530;SDS011;38441;52.894;6.040;2023-05-07T16:04:16;12.88;;;10.93;;
52530;SDS011;38441;52.894;6.040;2023-05-07T16:06:52;12.98;;;11.57;;
52530;SDS011;38441;52.894;6.040;2023-05-07T16:09:18;11.68;;;10.45;;
52530;SDS011;38441;52.894;6.040;2023-05-07T16:11:44;13.23;;;11.20;;
52530;SDS011;38441;52.894;6.040;2023-05-07T16:14:10;11.55;;;10.02;;
52530;SDS011;38441;52.894;6.040;2023-05-07T16:16:36;10.70;;;9.55;;
52530;SDS011;38441;52.894;6.040;2023-05-07T16:19:03;13.63;;;10.23;;
52530;SDS011;38441;52.894;6.040;2023-05-07T16:21:29;11.05;;;9.63;;
52530;SDS011;38441;52.894;6.040;2023-05-07T16:23:56;12.80;;;10.73;;
52530;SDS011;38441;52.894;6.040;2023-05-07T16:26:22;10.95;;;9.77;;
52530;SDS011;38441;52.894;6.040;2023-05-07T16:28:48;12.20;;;10.40;;
52530;SDS011;38441;52.894;6.040;2023-05-07T16:31:15;10.85;;;9.40;;
52530;SDS011;38441;52.894;6.040;2023-05-07T16:33:42;11.82;;;9.35;;
52530;SDS011;38441;52.894;6.040;2023-05-07T16:36:09;12.90;;;9.38;;
52530;SDS011;38441;52.894;6.040;2023-05-07T16:38:35;11.90;;;9.13;;
52530;SDS011;38441;52.894;6.040;2023-05-07T16:41:02;9.98;;;7.80;;
52530;SDS011;38441;52.894;6.040;2023-05-07T16:43:31;8.80;;;7.38;;
52530;SDS011;38441;52.894;6.040;2023-05-07T16:45:56;9.65;;;7.80;;
52530;SDS011;38441;52.894;6.040;2023-05-07T16:48:24;10.02;;;8.13;;
52530;SDS011;38441;52.894;6.040;2023-05-07T16:50:50;12.57;;;8.40;;
52530;SDS011;38441;52.894;6.040;2023-05-07T16:53:27;9.93;;;7.85;;
52530;SDS011;38441;52.894;6.040;2023-05-07T16:55:58;8.98;;;7.95;;
52530;SDS011;38441;52.894;6.040;2023-05-07T16:58:40;9.13;;;7.90;;
52530;SDS011;38441;52.894;6.040;2023-05-07T17:01:12;9.88;;;8.27;;
52530;SDS011;38441;52.894;6.040;2023-05-07T17:03:39;9.30;;;8.15;;
